Maersk Patras — 9V3818 — position and weather

sailwx.info

Track history (hours):
 
Tides and Currents Weather Stations Pressure Air Temp Water Temp Dewpoint Dewpoint Depression Visibility Wind Speed Wind Dir Waves Ship Positions

Maersk Patras

Last reported at 2017-Sep-22 01:58 UTC. Time now 2017-Sep-22 02:50 UTC.
Position N 09°31' W 013°43'.

; draft 8.1 m.

Type: Ship (hazmat cat A). MMSI: 565221000.

Date/timePositionNaut miles runAvg speedWind from/ knotsBaromVisibWave heightAir tempDewpointWater temp
2017-Sep-22 01:58N 09°31' W 013°43'0 0.0
2017-Sep-22 01:28N 09°31' W 013°43'0 0.0
2017-Sep-22 00:58N 09°31' W 013°43'0 0.0
2017-Sep-22 00:28N 09°31' W 013°43'0 0.0
2017-Sep-21 23:58N 09°31' W 013°43'0 0.0
2017-Sep-21 23:28N 09°31' W 013°43'0 0.0
2017-Sep-21 22:58N 09°31' W 013°43'0 0.0
2017-Sep-21 22:28N 09°31' W 013°43'0 0.0
2017-Sep-21 21:58N 09°31' W 013°43'0 0.0
2017-Sep-21 21:31N 09°31' W 013°43'0 0.0
2017-Sep-21 20:58N 09°31' W 013°43'0 0.0
2017-Sep-21 20:31N 09°31' W 013°43'0 0.0
2017-Sep-21 20:01N 09°31' W 013°43'0 0.0
2017-Sep-21 19:31N 09°31' W 013°43'0 0.0
2017-Sep-21 19:00N 09°31' W 013°43'0 0.0
2017-Sep-21 18:30N 09°31' W 013°43'0 0.0
2017-Sep-21 18:00N 09°31' W 013°43'0 0.0
2017-Sep-21 17:30N 09°31' W 013°43'0 0.0
2017-Sep-21 17:00N 09°31' W 013°43'0 0.0
2017-Sep-21 16:30N 09°31' W 013°43'0 0.0
2017-Sep-21 16:00N 09°31' W 013°43'0 0.0
2017-Sep-21 15:30N 09°31' W 013°43'0 0.0
2017-Sep-21 15:00N 09°31' W 013°43'0 0.0
2017-Sep-21 14:30N 09°31' W 013°43'0 0.0
2017-Sep-21 14:00N 09°31' W 013°43'0 0.0
2017-Sep-21 13:30N 09°31' W 013°43'0 0.0
2017-Sep-21 13:00N 09°31' W 013°43'0 0.0
2017-Sep-21 12:30N 09°31' W 013°43'0 0.0
2017-Sep-21 12:00N 09°31' W 013°43'0 0.0
2017-Sep-21 11:30N 09°31' W 013°43'0 0.0
2017-Sep-21 10:57N 09°31' W 013°43'45 8.6
2017-Sep-21 05:41N 09°02' W 014°19'213.4
2017-Sep-21 05:30N 09°01' W 014°22'2 3.3
2017-Sep-21 04:59N 09°00' W 014°23'1 1.1
2017-Sep-21 04:30N 09°00' W 014°22'1 1.0
2017-Sep-21 03:59N 08°60' W 014°22'0 0.3
2017-Sep-21 03:30N 08°59' W 014°22'0 0.6
2017-Sep-21 02:55N 08°59' W 014°23'4 1.0
2017-Sep-20 23:09N 08°57' W 014°25'1 4.5
2017-Sep-20 23:00N 08°56' W 014°25'1 1.6
2017-Sep-20 22:30N 08°57' W 014°24'1 2.2
2017-Sep-20 22:00N 08°58' W 014°24'1 1.6
2017-Sep-20 21:31N 08°59' W 014°23'1 1.0
2017-Sep-20 20:48N 08°59' W 014°23'0 0.6
2017-Sep-20 20:30N 08°59' W 014°23'1 1.2
2017-Sep-20 19:30N 08°60' W 014°22'1 1.8
2017-Sep-20 18:52N 08°59' W 014°21'6 0.4
2017-Sep-20 05:03N 09°05' W 014°23'1 3.2
2017-Sep-20 04:35N 09°03' W 014°23'0 2.5
2017-Sep-20 04:27N 09°03' W 014°23'1 2.2
2017-Sep-20 03:58N 09°02' W 014°23'1 1.2
2017-Sep-20 03:29N 09°02' W 014°24'1 1.7
2017-Sep-20 03:00N 09°01' W 014°24'0 0.6
2017-Sep-20 02:29N 09°01' W 014°24'1 1.1
2017-Sep-20 02:00N 09°00' W 014°24'0 0.3
2017-Sep-20 00:40N 08°60' W 014°24'0 0.7
2017-Sep-20 00:27N 08°60' W 014°24'0 0.4
2017-Sep-20 00:00N 08°60' W 014°24'0 0.6
2017-Sep-19 23:12N 08°60' W 014°24'0 1.2
2017-Sep-19 23:00N 08°60' W 014°23'0 0.8
2017-Sep-19 22:30N 08°60' W 014°23'1 3.0
2017-Sep-19 22:00N 09°01' W 014°23'0 0.6
2017-Sep-19 21:30N 09°01' W 014°23'2 2.8
2017-Sep-19 20:53N 09°03' W 014°22'0 0.5
2017-Sep-19 20:24N 09°03' W 014°22'2 3.6
2017-Sep-19 19:57N 09°05' W 014°22'0 0.8
2017-Sep-19 19:30N 09°05' W 014°23'1 2.6
2017-Sep-19 19:00N 09°06' W 014°22'1 0.6
2017-Sep-19 18:05N 09°06' W 014°22'0 2.9
2017-Sep-19 17:59N 09°06' W 014°22'1 1.9
2017-Sep-19 17:30N 09°05' W 014°22'1 2.6
2017-Sep-19 17:00N 09°04' W 014°22'1 2.0
2017-Sep-19 16:28N 09°03' W 014°23'1 2.2
2017-Sep-19 15:59N 09°02' W 014°23'1 2.6
2017-Sep-19 15:30N 09°00' W 014°23'2 1.8
2017-Sep-19 14:37N 08°59' W 014°22'0 1.5
2017-Sep-19 14:22N 08°58' W 014°22'4 1.6
2017-Sep-19 11:51N 08°56' W 014°19'1 3.3
2017-Sep-19 11:30N 08°56' W 014°18'2 2.1
2017-Sep-19 10:30N 08°57' W 014°16'2 3.5
2017-Sep-19 09:55N 08°58' W 014°14'8310.4
2017-Sep-19 02:00N 07°36' W 014°00'4210.6 170 / 111013.310.8 27.024.728.0
2017-Sep-18 22:00N 07°06' W 013°30'8911.1 160 / 121016.910.8 26.524.428.0
2017-Sep-18 14:00N 06°00' W 012°30'4210.6 150 / 111013.410.8 27.123.627.0
2017-Sep-18 10:00N 05°30' W 012°00'8911.1 180 / 201016.910.8 30.024.327.0
2017-Sep-18 02:00N 04°24' W 011°00'38 9.6 170 / 151013.810.8 26.022.827.0
2017-Sep-17 22:00N 03°54' W 010°36'8911.1 170 / 201017.410.8 27.523.127.0
2017-Sep-17 14:00N 02°48' W 009°36'5112.7 150 / 121013.410.8 25.922.127.0
2017-Sep-17 10:00N 02°12' W 009°00'10211.4 160 / 201016.410.8 27.022.627.0
2017-Sep-17 01:00N 00°54' W 007°54'5112.7 150 / 141013.810.8 24.921.125.0
2017-Sep-16 21:00N 00°18' W 007°18'9311.7 150 / 201017.010.8 24.521.524.0
2017-Sep-16 13:00S 00°48' W 006°12'13611.3 140 / 111015.510.8 24.021.324.0
2017-Sep-16 01:00S 02°30' W 004°42'5112.7 160 / 121014.510.8 23.020.424.0
2017-Sep-15 21:00S 03°06' W 004°06'8911.1 150 / 201018.510.8 25.020.423.0
2017-Sep-15 13:00S 04°12' W 003°06'4711.7 160 / 81016.210.8 26.321.124.0
2017-Sep-15 09:00S 04°48' W 002°36'8911.1 140 / 201018.510.8 25.020.423.0
2017-Sep-15 01:00S 05°54' W 001°36'4711.7 150 / 111015.910.8 21.420.023.0
2017-Sep-14 21:00S 06°24' W 001°00'9311.7 150 / 201018.0 5.4 24.019.423.0
2017-Sep-14 13:00S 07°36' E 000°00'4711.7 160 / 121015.210.8 21.319.323.0
2017-Sep-14 09:00S 08°12' E 000°30'8911.1 150 / 201019.010.8 21.519.122.0
2017-Sep-14 01:00S 09°18' E 001°30'5112.6 150 / 131016.610.8 19.717.422.0
2017-Sep-13 21:00S 09°54' E 002°06'8911.1 150 / 201018.0 5.4 20.018.422.0
2017-Sep-13 13:00S 11°00' E 003°06'5012.6 160 / 91015.810.8 21.619.122.0
2017-Sep-13 09:00S 11°36' E 003°42'9712.1 150 / 181019.010.8 22.018.021.0
2017-Sep-13 01:00S 12°48' E 004°48'4210.5 170 / 161015.310.8 17.916.620.0
2017-Sep-12 21:00S 13°18' E 005°18'9612.0 160 / 151018.6 5.4 18.516.919.0
2017-Sep-12 13:00S 14°30' E 006°24'4611.6 170 / 141014.410.8 18.915.720.0
2017-Sep-12 09:00S 15°06' E 006°54'   170 / 151018.110.8 18.016.319.0
Track history (hours):
 
Tides and Currents Weather Stations Pressure Air Temp Water Temp Dewpoint Dewpoint Depression Visibility Wind Speed Wind Dir Waves Ship Positions

Maersk Patras

Last reported at 2017-Sep-22 01:58 UTC. Time now 2017-Sep-22 02:50 UTC.
Position N 09°31' W 013°43'.

; draft 8.1 m.

Type: Ship (hazmat cat A). MMSI: 565221000.

Date/timePositionNaut miles runAvg speedWind from/ knotsBaromVisibWave heightAir tempDewpointWater temp
2017-Sep-22 01:58N 09°31' W 013°43'0 0.0
2017-Sep-22 01:28N 09°31' W 013°43'0 0.0
2017-Sep-22 00:58N 09°31' W 013°43'0 0.0
2017-Sep-22 00:28N 09°31' W 013°43'0 0.0
2017-Sep-21 23:58N 09°31' W 013°43'0 0.0
2017-Sep-21 23:28N 09°31' W 013°43'0 0.0
2017-Sep-21 22:58N 09°31' W 013°43'0 0.0
2017-Sep-21 22:28N 09°31' W 013°43'0 0.0
2017-Sep-21 21:58N 09°31' W 013°43'0 0.0
2017-Sep-21 21:31N 09°31' W 013°43'0 0.0
2017-Sep-21 20:58N 09°31' W 013°43'0 0.0
2017-Sep-21 20:31N 09°31' W 013°43'0 0.0
2017-Sep-21 20:01N 09°31' W 013°43'0 0.0
2017-Sep-21 19:31N 09°31' W 013°43'0 0.0
2017-Sep-21 19:00N 09°31' W 013°43'0 0.0
2017-Sep-21 18:30N 09°31' W 013°43'0 0.0
2017-Sep-21 18:00N 09°31' W 013°43'0 0.0
2017-Sep-21 17:30N 09°31' W 013°43'0 0.0
2017-Sep-21 17:00N 09°31' W 013°43'0 0.0
2017-Sep-21 16:30N 09°31' W 013°43'0 0.0
2017-Sep-21 16:00N 09°31' W 013°43'0 0.0
2017-Sep-21 15:30N 09°31' W 013°43'0 0.0
2017-Sep-21 15:00N 09°31' W 013°43'0 0.0
2017-Sep-21 14:30N 09°31' W 013°43'0 0.0
2017-Sep-21 14:00N 09°31' W 013°43'0 0.0
2017-Sep-21 13:30N 09°31' W 013°43'0 0.0
2017-Sep-21 13:00N 09°31' W 013°43'0 0.0
2017-Sep-21 12:30N 09°31' W 013°43'0 0.0
2017-Sep-21 12:00N 09°31' W 013°43'0 0.0
2017-Sep-21 11:30N 09°31' W 013°43'0 0.0
2017-Sep-21 10:57N 09°31' W 013°43'45 8.6
2017-Sep-21 05:41N 09°02' W 014°19'213.4
2017-Sep-21 05:30N 09°01' W 014°22'2 3.3
2017-Sep-21 04:59N 09°00' W 014°23'1 1.1
2017-Sep-21 04:30N 09°00' W 014°22'1 1.0
2017-Sep-21 03:59N 08°60' W 014°22'0 0.3
2017-Sep-21 03:30N 08°59' W 014°22'0 0.6
2017-Sep-21 02:55N 08°59' W 014°23'4 1.0
2017-Sep-20 23:09N 08°57' W 014°25'1 4.5
2017-Sep-20 23:00N 08°56' W 014°25'1 1.6
2017-Sep-20 22:30N 08°57' W 014°24'1 2.2
2017-Sep-20 22:00N 08°58' W 014°24'1 1.6
2017-Sep-20 21:31N 08°59' W 014°23'1 1.0
2017-Sep-20 20:48N 08°59' W 014°23'0 0.6
2017-Sep-20 20:30N 08°59' W 014°23'1 1.2
2017-Sep-20 19:30N 08°60' W 014°22'1 1.8
2017-Sep-20 18:52N 08°59' W 014°21'6 0.4
2017-Sep-20 05:03N 09°05' W 014°23'1 3.2
2017-Sep-20 04:35N 09°03' W 014°23'0 2.5
2017-Sep-20 04:27N 09°03' W 014°23'1 2.2
2017-Sep-20 03:58N 09°02' W 014°23'1 1.2
2017-Sep-20 03:29N 09°02' W 014°24'1 1.7
2017-Sep-20 03:00N 09°01' W 014°24'0 0.6
2017-Sep-20 02:29N 09°01' W 014°24'1 1.1
2017-Sep-20 02:00N 09°00' W 014°24'0 0.3
2017-Sep-20 00:40N 08°60' W 014°24'0 0.7
2017-Sep-20 00:27N 08°60' W 014°24'0 0.4
2017-Sep-20 00:00N 08°60' W 014°24'0 0.6
2017-Sep-19 23:12N 08°60' W 014°24'0 1.2
2017-Sep-19 23:00N 08°60' W 014°23'0 0.8
2017-Sep-19 22:30N 08°60' W 014°23'1 3.0
2017-Sep-19 22:00N 09°01' W 014°23'0 0.6
2017-Sep-19 21:30N 09°01' W 014°23'2 2.8
2017-Sep-19 20:53N 09°03' W 014°22'0 0.5
2017-Sep-19 20:24N 09°03' W 014°22'2 3.6
2017-Sep-19 19:57N 09°05' W 014°22'0 0.8
2017-Sep-19 19:30N 09°05' W 014°23'1 2.6
2017-Sep-19 19:00N 09°06' W 014°22'1 0.6
2017-Sep-19 18:05N 09°06' W 014°22'0 2.9
2017-Sep-19 17:59N 09°06' W 014°22'1 1.9
2017-Sep-19 17:30N 09°05' W 014°22'1 2.6
2017-Sep-19 17:00N 09°04' W 014°22'1 2.0
2017-Sep-19 16:28N 09°03' W 014°23'1 2.2
2017-Sep-19 15:59N 09°02' W 014°23'1 2.6
2017-Sep-19 15:30N 09°00' W 014°23'2 1.8
2017-Sep-19 14:37N 08°59' W 014°22'0 1.5
2017-Sep-19 14:22N 08°58' W 014°22'4 1.6
2017-Sep-19 11:51N 08°56' W 014°19'1 3.3
2017-Sep-19 11:30N 08°56' W 014°18'2 2.1
2017-Sep-19 10:30N 08°57' W 014°16'2 3.5
2017-Sep-19 09:55N 08°58' W 014°14'8310.4
2017-Sep-19 02:00N 07°36' W 014°00'4210.6 170 / 111013.310.8 27.024.728.0
2017-Sep-18 22:00N 07°06' W 013°30'8911.1 160 / 121016.910.8 26.524.428.0
2017-Sep-18 14:00N 06°00' W 012°30'4210.6 150 / 111013.410.8 27.123.627.0
2017-Sep-18 10:00N 05°30' W 012°00'8911.1 180 / 201016.910.8 30.024.327.0
2017-Sep-18 02:00N 04°24' W 011°00'38 9.6 170 / 151013.810.8 26.022.827.0
2017-Sep-17 22:00N 03°54' W 010°36'8911.1 170 / 201017.410.8 27.523.127.0
2017-Sep-17 14:00N 02°48' W 009°36'5112.7 150 / 121013.410.8 25.922.127.0
2017-Sep-17 10:00N 02°12' W 009°00'10211.4 160 / 201016.410.8 27.022.627.0
2017-Sep-17 01:00N 00°54' W 007°54'5112.7 150 / 141013.810.8 24.921.125.0
2017-Sep-16 21:00N 00°18' W 007°18'9311.7 150 / 201017.010.8 24.521.524.0
2017-Sep-16 13:00S 00°48' W 006°12'13611.3 140 / 111015.510.8 24.021.324.0
2017-Sep-16 01:00S 02°30' W 004°42'5112.7 160 / 121014.510.8 23.020.424.0
2017-Sep-15 21:00S 03°06' W 004°06'8911.1 150 / 201018.510.8 25.020.423.0
2017-Sep-15 13:00S 04°12' W 003°06'4711.7 160 / 81016.210.8 26.321.124.0
2017-Sep-15 09:00S 04°48' W 002°36'8911.1 140 / 201018.510.8 25.020.423.0
2017-Sep-15 01:00S 05°54' W 001°36'4711.7 150 / 111015.910.8 21.420.023.0
2017-Sep-14 21:00S 06°24' W 001°00'9311.7 150 / 201018.0 5.4 24.019.423.0
2017-Sep-14 13:00S 07°36' E 000°00'4711.7 160 / 121015.210.8 21.319.323.0
2017-Sep-14 09:00S 08°12' E 000°30'8911.1 150 / 201019.010.8 21.519.122.0
2017-Sep-14 01:00S 09°18' E 001°30'5112.6 150 / 131016.610.8 19.717.422.0
2017-Sep-13 21:00S 09°54' E 002°06'8911.1 150 / 201018.0 5.4 20.018.422.0
2017-Sep-13 13:00S 11°00' E 003°06'5012.6 160 / 91015.810.8 21.619.122.0
2017-Sep-13 09:00S 11°36' E 003°42'9712.1 150 / 181019.010.8 22.018.021.0
2017-Sep-13 01:00S 12°48' E 004°48'4210.5 170 / 161015.310.8 17.916.620.0
2017-Sep-12 21:00S 13°18' E 005°18'9612.0 160 / 151018.6 5.4 18.516.919.0
2017-Sep-12 13:00S 14°30' E 006°24'4611.6 170 / 141014.410.8 18.915.720.0
2017-Sep-12 09:00S 15°06' E 006°54'   170 / 151018.110.8 18.016.319.0

Dump ship's entire track history